createdAt,value
2019-03-24T00:02:51.955Z,46.27
2019-03-24T00:07:56.807Z,54.23
2019-03-24T00:12:59.613Z,50.20
2019-03-24T00:18:02.557Z,51.57
2019-03-24T00:23:05.723Z,46.33
2019-03-24T00:28:08.968Z,41.53
2019-03-24T00:33:11.864Z,50.63
2019-03-24T00:38:14.770Z,53.20
2019-03-24T00:43:17.655Z,53.73
2019-03-24T00:48:20.567Z,56.93
2019-03-24T00:53:23.467Z,58.27
2019-03-24T00:58:26.772Z,64.87
2019-03-24T01:03:30.423Z,58.00
2019-03-24T01:08:33.336Z,62.57
2019-03-24T01:13:36.264Z,70.37
2019-03-24T01:18:39.057Z,67.37
2019-03-24T01:23:42.070Z,59.97
2019-03-24T01:28:46.286Z,66.87
2019-03-24T01:33:49.624Z,58.03
2019-03-24T01:38:52.683Z,63.60
2019-03-24T01:43:55.747Z,59.73
2019-03-24T01:48:58.739Z,59.60
2019-03-24T01:54:01.846Z,68.20
2019-03-24T01:59:05.543Z,67.97
2019-03-24T02:04:08.455Z,86.60
2019-03-24T02:09:12.540Z,72.10
2019-03-24T02:14:15.431Z,94.53
2019-03-24T02:19:18.231Z,82.63
2019-03-24T02:24:21.061Z,76.00
2019-03-24T02:29:25.433Z,166.57
2019-03-24T02:34:28.368Z,90.93
2019-03-24T02:39:31.346Z,177.03
2019-03-24T02:44:34.258Z,143.63
2019-03-24T02:49:37.152Z,169.37
2019-03-24T02:54:40.059Z,121.90
2019-03-24T02:59:43.161Z,111.10
2019-03-24T03:04:47.059Z,93.73
2019-03-24T03:09:50.264Z,153.37
2019-03-24T03:14:53.130Z,75.00
2019-03-24T03:19:56.016Z,79.10
2019-03-24T03:24:59.411Z,188.23
2019-03-24T03:30:02.643Z,148.50
2019-03-24T03:35:07.939Z,135.50
2019-03-24T03:40:11.099Z,143.77
2019-03-24T03:45:23.177Z,98.97
2019-03-24T03:50:26.088Z,226.43
2019-03-24T03:55:28.963Z,144.73
2019-03-24T04:00:33.380Z,161.00
2019-03-24T04:05:37.855Z,177.30
2019-03-24T04:10:40.839Z,114.00
2019-03-24T04:15:43.708Z,131.20
2019-03-24T04:20:46.950Z,102.50
2019-03-24T04:25:49.745Z,166.10
2019-03-24T04:30:52.645Z,128.73
2019-03-24T04:35:55.659Z,128.33
2019-03-24T04:40:58.567Z,140.33
2019-03-24T04:46:01.595Z,132.80
2019-03-24T04:51:04.531Z,150.23
2019-03-24T04:56:07.455Z,162.73
2019-03-24T05:01:10.407Z,201.07
2019-03-24T05:06:15.275Z,162.83
2019-03-24T05:11:18.331Z,239.63
2019-03-24T05:16:21.239Z,272.93
2019-03-24T05:21:24.266Z,250.53
2019-03-24T05:26:27.070Z,249.40
2019-03-24T05:31:30.007Z,170.70
2019-03-24T05:36:33.795Z,164.53
2019-03-24T05:41:36.860Z,110.47
2019-03-24T05:46:39.675Z,207.70
2019-03-24T05:51:42.571Z,160.93
2019-03-24T05:56:45.458Z,179.07
2019-03-24T06:01:49.286Z,138.83
2019-03-24T06:06:52.183Z,163.57
2019-03-24T06:11:55.066Z,147.93
2019-03-24T06:16:58.130Z,147.70
2019-03-24T06:22:01.107Z,239.77
2019-03-24T06:27:04.016Z,223.47
2019-03-24T06:32:07.023Z,204.63
2019-03-24T06:37:10.364Z,195.67
2019-03-24T06:42:13.427Z,232.53
2019-03-24T06:47:16.736Z,185.70
2019-03-24T06:52:19.818Z,183.17
2019-03-24T06:57:23.035Z,194.03
2019-03-24T07:02:26.051Z,190.47
2019-03-24T07:07:29.087Z,173.13
2019-03-24T07:12:32.489Z,177.27
2019-03-24T07:17:37.615Z,143.03
2019-03-24T07:22:40.137Z,154.17
2019-03-24T07:27:43.039Z,157.83
2019-03-24T07:32:45.951Z,146.20
2019-03-24T07:37:50.334Z,145.63
2019-03-24T07:42:53.347Z,145.37
2019-03-24T07:47:57.188Z,127.90
2019-03-24T07:53:00.197Z,121.50
2019-03-24T07:58:03.346Z,121.97
2019-03-24T08:03:08.018Z,121.00
2019-03-24T08:08:11.079Z,114.10
2019-03-24T08:13:13.867Z,108.37
2019-03-24T08:18:16.656Z,100.10
2019-03-24T08:23:19.527Z,106.57
2019-03-24T08:28:23.232Z,112.53
2019-03-24T08:33:26.162Z,97.57
2019-03-24T08:38:29.355Z,80.73
2019-03-24T08:43:32.247Z,95.30
2019-03-24T08:48:40.807Z,96.63
2019-03-24T08:53:39.958Z,54.40
2019-03-24T08:58:43.007Z,73.37
2019-03-24T09:03:45.880Z,69.70
2019-03-24T09:08:49.755Z,95.60
2019-03-24T09:13:52.847Z,97.90
2019-03-24T09:18:56.072Z,95.07
2019-03-24T09:23:59.254Z,90.70
2019-03-24T09:29:02.171Z,89.67
2019-03-24T09:34:05.465Z,81.67
2019-03-24T09:39:08.585Z,80.23
2019-03-24T09:44:11.556Z,83.10
2019-03-24T09:49:14.471Z,79.03
2019-03-24T09:54:17.269Z,83.80
2019-03-24T09:59:20.259Z,77.57
2019-03-24T10:04:23.093Z,71.20
2019-03-24T10:09:26.668Z,76.80
2019-03-24T10:14:29.684Z,71.47
2019-03-24T10:19:32.620Z,77.03
2019-03-24T10:24:35.519Z,77.93
2019-03-24T10:29:38.427Z,85.23
2019-03-24T10:34:41.364Z,73.10
2019-03-24T10:39:44.636Z,81.30
2019-03-24T10:44:47.663Z,78.13
2019-03-24T10:49:51.019Z,70.63
2019-03-24T11:00:42.810Z,71.23
2019-03-24T11:05:46.042Z,75.07
2019-03-24T11:10:49.479Z,71.23
2019-03-24T11:15:52.416Z,78.87
2019-03-24T11:20:55.341Z,70.60
2019-03-24T11:25:58.507Z,62.97
2019-03-24T11:31:01.853Z,65.27
2019-03-24T11:36:06.474Z,65.37
2019-03-24T11:41:10.003Z,64.73
2019-03-24T11:46:13.252Z,59.87
2019-03-24T11:51:16.080Z,62.13
2019-03-24T11:56:19.111Z,61.77
2019-03-24T12:01:22.001Z,59.03
2019-03-24T12:06:24.987Z,65.73
2019-03-24T12:11:28.448Z,61.50
2019-03-24T12:16:31.536Z,60.13
2019-03-24T12:21:35.044Z,57.00
2019-03-24T12:26:37.991Z,56.57
2019-03-24T12:31:40.891Z,58.53
2019-03-24T12:36:43.996Z,61.10
2019-03-24T12:41:47.043Z,53.50
2019-03-24T12:46:50.515Z,57.60
2019-03-24T12:51:53.702Z,56.13
2019-03-24T12:56:56.899Z,52.13
2019-03-24T13:02:00.416Z,49.70
2019-03-24T13:07:03.345Z,36.07
2019-03-24T13:12:06.478Z,50.77
2019-03-24T13:17:09.678Z,53.47
2019-03-24T13:22:12.960Z,52.03
2019-03-24T13:27:16.048Z,48.00
2019-03-24T13:32:22.303Z,48.27
2019-03-24T13:37:25.889Z,46.07
2019-03-24T13:42:29.055Z,57.07
2019-03-24T13:47:32.375Z,41.83
2019-03-24T13:52:35.710Z,43.33
2019-03-24T13:57:40.783Z,40.87
2019-03-24T14:02:43.951Z,41.77
2019-03-24T14:07:46.881Z,41.87
2019-03-24T14:12:50.055Z,47.43
2019-03-24T14:17:53.023Z,38.60
2019-03-24T14:22:56.239Z,47.37
2019-03-24T14:27:59.658Z,30.27
2019-03-24T14:33:02.993Z,32.43
2019-03-24T14:38:06.304Z,40.87
2019-03-24T14:43:09.219Z,41.37
2019-03-24T14:48:12.378Z,44.47
2019-03-24T14:53:15.575Z,44.97
2019-03-24T14:58:21.644Z,51.77
2019-03-24T15:03:26.166Z,45.45
2019-03-24T15:08:29.091Z,49.87
2019-03-24T15:13:33.304Z,46.73
2019-03-24T15:18:36.143Z,45.58
2019-03-24T15:23:39.315Z,46.73
2019-03-24T15:28:42.704Z,49.27
2019-03-24T15:33:45.654Z,47.77
2019-03-24T15:38:48.633Z,48.28
2019-03-24T15:43:54.933Z,56.43
2019-03-24T15:49:01.364Z,51.73
2019-03-24T15:54:09.696Z,57.07
2019-03-24T15:59:15.747Z,44.33
2019-03-24T16:04:19.795Z,54.70
2019-03-24T16:09:29.376Z,50.90
2019-03-24T16:14:36.502Z,53.87
2019-03-24T16:19:39.858Z,47.53
2019-03-24T16:24:43.024Z,52.27
2019-03-24T16:29:46.717Z,58.07
2019-03-24T16:34:49.691Z,58.53
2019-03-24T16:39:52.670Z,60.47
2019-03-24T16:44:55.664Z,58.60
2019-03-24T16:49:59.172Z,59.03
2019-03-24T16:55:02.751Z,52.50
2019-03-24T17:00:06.958Z,59.97
2019-03-24T17:05:11.159Z,24.17
2019-03-24T17:10:14.107Z,64.90
2019-03-24T17:15:17.088Z,62.20
2019-03-24T17:20:20.115Z,64.57
2019-03-24T17:25:23.129Z,62.40
2019-03-24T17:30:26.430Z,59.83
2019-03-24T17:35:30.198Z,51.27
2019-03-24T17:40:38.754Z,73.47
2019-03-24T17:45:38.131Z,66.97
2019-03-24T17:50:42.707Z,60.63
2019-03-24T17:55:45.783Z,79.73
2019-03-24T18:00:52.067Z,72.20
2019-03-24T18:05:54.922Z,78.63
2019-03-24T18:10:57.870Z,78.83
2019-03-24T18:16:01.057Z,80.43
2019-03-24T18:27:15.559Z,89.93
2019-03-24T18:32:23.090Z,77.33
2019-03-24T18:37:25.908Z,82.73
2019-03-24T18:42:37.581Z,87.57
2019-03-24T18:47:41.031Z,79.97
2019-03-24T18:52:44.135Z,94.13
2019-03-24T18:57:47.193Z,83.80
2019-03-24T19:02:54.806Z,83.23
2019-03-24T19:07:58.505Z,83.83
2019-03-24T19:13:01.464Z,86.47
2019-03-24T19:18:06.009Z,99.10
2019-03-24T19:23:12.246Z,92.83
2019-03-24T19:28:17.846Z,89.83
2019-03-24T19:33:21.644Z,90.17
2019-03-24T19:38:26.747Z,100.80
2019-03-24T19:43:33.219Z,94.40
2019-03-24T19:48:37.408Z,102.17
2019-03-24T19:53:40.432Z,86.63
2019-03-24T19:58:51.686Z,110.63
2019-03-24T20:03:55.270Z,107.80
2019-03-24T20:08:58.894Z,112.60
2019-03-24T20:14:01.999Z,120.33
2019-03-24T20:19:05.864Z,112.03
2019-03-24T20:24:09.161Z,108.80
2019-03-24T20:29:18.855Z,98.87
2019-03-24T20:34:27.438Z,106.57
2019-03-24T20:39:31.063Z,114.87
2019-03-24T20:44:33.976Z,110.10
2019-03-24T20:49:40.994Z,94.37
2019-03-24T20:54:47.459Z,98.47
2019-03-24T20:59:56.253Z,92.03
2019-03-24T21:04:59.640Z,108.73
2019-03-24T21:10:09.658Z,91.30
2019-03-24T21:15:15.936Z,99.47
2019-03-24T21:20:18.889Z,97.23
2019-03-24T21:25:23.516Z,87.20
2019-03-24T21:30:34.833Z,100.57
2019-03-24T21:35:40.020Z,106.03
2019-03-24T21:40:43.093Z,120.57
2019-03-24T21:45:46.094Z,104.70
2019-03-24T21:50:49.140Z,106.47
2019-03-24T21:55:52.032Z,103.40
2019-03-24T22:00:54.957Z,111.17
2019-03-24T22:05:58.396Z,114.87
2019-03-24T22:11:01.346Z,111.07
2019-03-24T22:16:04.279Z,114.90
2019-03-24T22:21:07.197Z,122.43
2019-03-24T22:26:10.151Z,126.30
2019-03-24T22:31:13.269Z,138.43
2019-03-24T22:36:16.632Z,129.67
2019-03-24T22:41:19.595Z,125.67
2019-03-24T22:46:23.859Z,116.60
2019-03-24T22:51:26.763Z,116.43
2019-03-24T22:56:30.197Z,96.33
2019-03-24T23:01:33.273Z,119.50
2019-03-24T23:06:36.522Z,118.80
2019-03-24T23:11:39.463Z,111.60
2019-03-24T23:16:43.640Z,106.90
2019-03-24T23:21:46.497Z,106.13
2019-03-24T23:26:49.423Z,107.60
2019-03-24T23:31:52.704Z,98.23
2019-03-24T23:36:55.776Z,111.23
2019-03-24T23:41:58.856Z,116.37
2019-03-24T23:47:01.898Z,112.23
2019-03-24T23:52:04.831Z,108.67
2019-03-24T23:57:07.745Z,106.13
